Time;durP1;ratioP1;P1;durP2;ratioP2;P2;SDS_P1;SDS_P2;PMS_P1;PMS_P2;Temp;Humidity;BMP_temperature;BMP_pressure;BME280_temperature;BME280_humidity;BME280_pressure;Samples;Min_cycle;Max_cycle;Signal;HPM_P1;HPM_P2
2022/03/07 00:00:40;;;;;;;20.10;10.50;;;;;;;-0.30;51.23;99597.09;25088;1307;3028723;-69
2022/03/07 00:03:11;;;;;;;20.30;9.60;;;;;;;-0.30;51.39;99592.44;25191;1308;3029730;-68
2022/03/07 00:05:41;;;;;;;24.70;12.20;;;;;;;-0.30;51.54;99586.25;25143;1308;3026407;-70
2022/03/07 00:08:10;;;;;;;19.80;10.60;;;;;;;-0.35;52.10;99592.16;25126;1308;3026485;-68
2022/03/07 00:10:59;;;;;;;24.00;12.30;;;;;;;-0.44;53.28;99586.27;25334;1308;3049211;-72
2022/03/07 00:13:48;;;;;;;28.70;13.40;;;;;;;-0.56;54.33;99584.54;25240;1308;3052511;-72
2022/03/07 00:16:19;;;;;;;26.50;13.30;;;;;;;-0.57;54.62;99584.20;25228;1308;3026729;-66
2022/03/07 00:18:48;;;;;;;30.10;13.80;;;;;;;-0.55;54.77;99579.69;25374;1308;3026726;-67
2022/03/07 00:21:16;;;;;;;24.50;13.10;;;;;;;-0.58;54.66;99574.39;25211;1308;3051810;-68
2022/03/07 00:23:46;;;;;;;25.40;12.20;;;;;;;-0.66;55.35;99572.98;25242;1311;3030041;-66
2022/03/07 00:26:17;;;;;;;27.50;12.50;;;;;;;-0.66;54.99;99567.13;25344;1308;3029964;-67
2022/03/07 00:29:05;;;;;;;20.10;10.80;;;;;;;-0.71;55.32;99561.50;25182;1310;3054229;-71
2022/03/07 00:31:35;;;;;;;22.70;11.10;;;;;;;-0.66;54.92;99562.65;25150;1309;3026474;-69
2022/03/07 00:34:04;;;;;;;22.10;11.10;;;;;;;-0.74;55.37;99559.30;25207;1308;3028992;-70
2022/03/07 00:36:35;;;;;;;23.30;11.80;;;;;;;-0.79;55.77;99559.02;25218;1308;3048638;-66
2022/03/07 00:39:04;;;;;;;24.60;11.60;;;;;;;-0.83;55.73;99555.29;25145;1308;3027141;-71
2022/03/07 00:41:34;;;;;;;20.20;10.60;;;;;;;-0.85;55.65;99553.95;25123;1308;3029848;-66
2022/03/07 00:44:03;;;;;;;24.10;11.80;;;;;;;-0.85;55.97;99552.91;25173;1308;3026543;-71
2022/03/07 00:46:33;;;;;;;22.50;12.30;;;;;;;-0.83;56.41;99550.31;25184;1308;3054511;-70
2022/03/07 00:49:02;;;;;;;21.30;11.50;;;;;;;-0.85;56.63;99543.11;25168;1311;3026998;-65
2022/03/07 00:51:37;;;;;;;20.90;10.70;;;;;;;-0.82;57.05;99542.39;25141;1308;3069204;-72
2022/03/07 00:54:07;;;;;;;19.60;9.70;;;;;;;-0.86;57.50;99541.23;25139;1308;3026842;-73
2022/03/07 00:56:36;;;;;;;15.20;9.00;;;;;;;-0.89;56.93;99535.60;25175;1308;3030085;-71
2022/03/07 00:59:05;;;;;;;19.60;9.60;;;;;;;-0.90;56.59;99525.98;25174;1308;3028466;-69
2022/03/07 01:01:34;;;;;;;16.70;9.60;;;;;;;-0.89;57.58;99526.14;25185;1311;3052357;-71
2022/03/07 01:04:04;;;;;;;18.00;9.40;;;;;;;-0.93;57.58;99522.73;25159;1308;3027988;-71
2022/03/07 01:06:34;;;;;;;17.60;8.20;;;;;;;-0.92;57.59;99521.36;25174;1308;3071416;-73
2022/03/07 01:09:03;;;;;;;16.10;7.90;;;;;;;-0.95;57.08;99517.95;25228;1308;3026544;-69
2022/03/07 01:11:32;;;;;;;16.50;7.90;;;;;;;-1.00;57.03;99514.74;25208;1311;3026547;-69
2022/03/07 01:14:02;;;;;;;15.60;9.00;;;;;;;-0.93;57.13;99511.55;25179;1308;3070356;-67
2022/03/07 01:16:32;;;;;;;17.80;9.50;;;;;;;-0.90;57.89;99508.27;25109;1308;3029243;-67
2022/03/07 01:19:21;;;;;;;16.60;8.30;;;;;;;-0.89;58.45;99502.40;25172;1308;3051565;-70
2022/03/07 01:21:52;;;;;;;14.80;8.20;;;;;;;-0.91;58.38;99497.77;25138;1309;3026931;-65
2022/03/07 01:24:39;;;;;;;22.10;9.60;;;;;;;-0.91;58.21;99495.73;25153;1311;3059147;-67
2022/03/07 01:27:08;;;;;;;22.40;9.30;;;;;;;-0.93;59.22;99495.23;25228;1310;3026443;-71
2022/03/07 01:29:39;;;;;;;17.60;9.30;;;;;;;-0.96;59.30;99495.27;25176;1310;3026688;-71
2022/03/07 01:32:08;;;;;;;18.90;10.10;;;;;;;-0.88;58.78;99487.94;25206;1310;3027509;-73
2022/03/07 01:34:39;;;;;;;17.10;9.10;;;;;;;-0.87;59.05;99483.63;25184;1311;3052187;-67
2022/03/07 01:37:09;;;;;;;17.10;9.10;;;;;;;-0.89;59.37;99488.30;22501;1311;13390228;-72
2022/03/07 01:39:38;;;;;;;25.60;14.50;;;;;;;-0.75;58.85;99483.81;25096;1311;3051629;-73
2022/03/07 01:42:08;;;;;;;21.90;11.20;;;;;;;-0.71;58.92;99483.23;25097;1311;3026528;-71
2022/03/07 01:44:37;;;;;;;22.70;11.10;;;;;;;-0.82;59.20;99482.01;25145;1309;3027097;-70
2022/03/07 01:47:07;;;;;;;19.30;9.80;;;;;;;-0.97;59.97;99483.77;25205;1310;3027136;-72
2022/03/07 01:49:36;;;;;;;17.80;9.60;;;;;;;-0.94;60.21;99479.94;25184;1311;3027093;-72
2022/03/07 01:52:06;;;;;;;22.80;11.10;;;;;;;-1.03;60.56;99482.13;25175;1309;3051330;-68
2022/03/07 01:54:37;;;;;;;18.80;9.70;;;;;;;-1.03;60.61;99475.94;25161;1311;3026756;-69
2022/03/07 01:57:06;;;;;;;20.40;10.60;;;;;;;-1.07;59.78;99477.02;25151;1311;3026557;-67
2022/03/07 01:59:37;;;;;;;23.00;11.10;;;;;;;-1.11;60.69;99476.73;25084;1311;3051611;-66
2022/03/07 02:02:06;;;;;;;18.50;9.50;;;;;;;-1.07;60.78;99475.30;25196;1310;3026431;-69
2022/03/07 02:04:39;;;;;;;22.60;11.00;;;;;;;-1.08;60.77;99469.96;25148;1309;3028829;-69
2022/03/07 02:07:29;;;;;;;22.20;12.00;;;;;;;-1.14;61.35;99468.68;25111;1310;3053079;-65
2022/03/07 02:09:59;;;;;;;20.60;10.60;;;;;;;-1.12;61.68;99471.93;25153;1310;3026742;-66
2022/03/07 02:12:29;;;;;;;23.60;11.70;;;;;;;-1.13;61.36;99465.05;25100;1311;3049978;-68
2022/03/07 02:14:58;;;;;;;28.00;13.00;;;;;;;-1.11;61.57;99464.34;25095;1311;3026495;-68
2022/03/07 02:17:29;;;;;;;24.50;10.60;;;;;;;-1.16;61.77;99461.83;25134;1311;3026360;-70
2022/03/07 02:20:00;;;;;;;29.70;12.30;;;;;;;-1.14;61.56;99461.47;25164;1309;3027661;-65
2022/03/07 02:22:29;;;;;;;21.30;10.30;;;;;;;-1.15;61.05;99462.52;25154;1310;3026327;-70
2022/03/07 02:24:58;;;;;;;23.10;10.90;;;;;;;-1.16;62.00;99458.73;25192;1311;3026485;-65
2022/03/07 02:27:28;;;;;;;20.50;10.40;;;;;;;-1.13;61.76;99454.74;25092;1311;3066573;-62
2022/03/07 02:29:59;;;;;;;19.40;10.10;;;;;;;-1.14;61.61;99455.79;25152;1310;3027355;-73
2022/03/07 02:32:30;;;;;;;19.60;10.50;;;;;;;-1.15;61.64;99460.44;25093;1311;3026723;-65
2022/03/07 02:34:59;;;;;;;18.40;10.10;;;;;;;-1.15;62.06;99457.88;25150;1310;3026445;-70
2022/03/07 02:37:28;;;;;;;20.70;9.70;;;;;;;-1.12;61.75;99456.79;25078;1311;3048093;-68
2022/03/07 02:39:58;;;;;;;16.80;8.60;;;;;;;-1.14;61.86;99458.54;25098;1310;3026753;-68
2022/03/07 02:42:27;;;;;;;17.60;8.90;;;;;;;-1.10;61.78;99457.11;25117;1312;3026523;-68
2022/03/07 02:44:58;;;;;;;19.20;9.50;;;;;;;-1.10;61.72;99452.98;25123;1311;3026531;-67
2022/03/07 02:47:28;;;;;;;19.30;9.40;;;;;;;-1.09;61.80;99452.46;25093;1311;3026916;-67
2022/03/07 02:49:57;;;;;;;25.90;11.10;;;;;;;-1.13;62.17;99455.77;25297;1310;3028790;-62
2022/03/07 02:52:27;;;;;;;22.90;12.30;;;;;;;-1.11;62.29;99454.02;25545;1310;3059153;-60
2022/03/07 02:54:57;;;;;;;23.60;11.30;;;;;;;-1.13;62.20;99453.71;25567;1310;3026365;-60
2022/03/07 02:58:44;;;;;;;22.00;11.60;;;;;;;-1.10;62.37;99451.10;31388;1319;3026021;-70
2022/03/07 03:01:13;;;;;;;25.00;13.10;;;;;;;-0.83;61.24;99445.73;24960;1322;3028169;-68
2022/03/07 03:03:43;;;;;;;15.60;8.50;;;;;;;-0.67;60.32;99443.77;24990;1322;3026263;-66
2022/03/07 03:06:14;;;;;;;15.40;8.80;;;;;;;-0.82;60.74;99443.66;24965;1322;3026939;-67
2022/03/07 03:08:43;;;;;;;13.20;8.00;;;;;;;-0.82;60.95;99442.63;24944;1322;3026187;-71
2022/03/07 03:11:11;;;;;;;13.20;8.00;;;;;;;-0.93;61.37;99441.58;22479;1320;13355846;-63
2022/03/07 03:13:41;;;;;;;20.70;12.70;;;;;;;-0.76;61.20;99439.60;25154;1319;3029248;-65
2022/03/07 03:16:10;;;;;;;17.20;8.90;;;;;;;-0.60;60.87;99438.33;25045;1319;3028393;-67
2022/03/07 03:18:39;;;;;;;17.00;8.40;;;;;;;-0.74;60.88;99433.05;25002;1319;3067799;-65
2022/03/07 03:21:09;;;;;;;13.40;8.10;;;;;;;-0.78;61.47;99431.73;25241;1319;3026412;-72
2022/03/07 03:23:38;;;;;;;18.10;7.90;;;;;;;-0.89;61.65;99439.29;25101;1319;3026778;-68
2022/03/07 03:26:07;;;;;;;12.80;7.70;;;;;;;-1.04;61.60;99437.77;25036;1319;3026151;-64
2022/03/07 03:28:38;;;;;;;11.90;6.60;;;;;;;-1.08;61.96;99434.38;25162;1319;3048400;-65
2022/03/07 03:31:11;;;;;;;12.00;7.10;;;;;;;-1.09;61.94;99433.89;25076;1319;3026331;-68
2022/03/07 03:33:42;;;;;;;13.50;7.90;;;;;;;-1.11;61.65;99434.60;25083;1319;3028842;-65
2022/03/07 03:36:13;;;;;;;14.80;9.00;;;;;;;-1.13;61.98;99426.89;24901;1318;3027215;-65
2022/03/07 03:38:43;;;;;;;13.70;9.20;;;;;;;-1.11;62.50;99425.68;24996;1319;3026774;-66
2022/03/07 03:41:13;;;;;;;14.40;8.70;;;;;;;-1.07;62.31;99422.69;25140;1319;3051254;-67
2022/03/07 03:43:42;;;;;;;13.50;8.30;;;;;;;-1.12;62.49;99416.91;25063;1319;3028402;-70
2022/03/07 03:46:11;;;;;;;13.50;8.50;;;;;;;-1.06;62.42;99413.91;25109;1315;3027177;-73
2022/03/07 03:48:40;;;;;;;17.20;9.50;;;;;;;-1.06;62.50;99408.23;25069;1315;3051273;-67
2022/03/07 03:51:09;;;;;;;17.40;9.60;;;;;;;-1.06;62.31;99407.38;25098;1316;3028499;-70
2022/03/07 03:53:38;;;;;;;16.70;9.00;;;;;;;-1.06;62.51;99410.29;25060;1316;3052294;-68
2022/03/07 03:56:08;;;;;;;17.30;9.90;;;;;;;-1.09;62.48;99404.67;25062;1315;3026408;-68
2022/03/07 03:58:38;;;;;;;13.60;7.90;;;;;;;-1.00;62.25;99403.85;25118;1316;3027315;-63
2022/03/07 04:01:08;;;;;;;18.00;9.10;;;;;;;-1.06;62.08;99408.05;25035;1316;3026890;-66
2022/03/07 04:03:37;;;;;;;19.60;9.30;;;;;;;-1.18;63.05;99406.00;25103;1314;3026779;-65
2022/03/07 04:06:08;;;;;;;12.70;7.90;;;;;;;-1.06;62.76;99400.48;25073;1315;3057957;-70
2022/03/07 04:08:37;;;;;;;15.90;9.00;;;;;;;-1.11;62.84;99398.67;25018;1315;3027322;-69
2022/03/07 04:11:07;;;;;;;13.70;8.00;;;;;;;-1.11;62.95;99395.59;25095;1316;3026556;-65
2022/03/07 04:13:37;;;;;;;15.90;9.00;;;;;;;-1.12;63.12;99391.65;25114;1314;3056652;-68
2022/03/07 04:16:06;;;;;;;13.20;7.00;;;;;;;-1.13;63.10;99392.52;25068;1315;3027022;-63
2022/03/07 04:18:36;;;;;;;12.90;7.10;;;;;;;-1.14;63.27;99391.14;25041;1316;3026054;-70
2022/03/07 04:21:05;;;;;;;13.20;6.50;;;;;;;-1.22;63.91;99392.64;25076;1315;3027193;-65
2022/03/07 04:23:35;;;;;;;11.30;6.60;;;;;;;-1.18;63.82;99387.77;25073;1315;3026736;-63
2022/03/07 04:26:04;;;;;;;12.70;6.80;;;;;;;-1.13;63.36;99387.18;25165;1316;3052588;-71
2022/03/07 04:28:34;;;;;;;13.70;6.80;;;;;;;-1.19;63.97;99386.06;25052;1315;3027099;-66
2022/03/07 04:31:05;;;;;;;10.70;6.30;;;;;;;-1.06;63.52;99382.27;25118;1315;3026199;-68
2022/03/07 04:33:34;;;;;;;10.00;6.20;;;;;;;-1.11;63.73;99381.65;25094;1316;3027404;-69
2022/03/07 04:36:03;;;;;;;12.20;6.00;;;;;;;-1.18;64.20;99381.59;25084;1315;3049788;-64
2022/03/07 04:38:34;;;;;;;12.50;7.30;;;;;;;-1.19;64.06;99374.89;25068;1315;3029621;-67
2022/03/07 04:41:04;;;;;;;11.80;6.20;;;;;;;-1.24;64.82;99371.70;25062;1316;3026150;-72
2022/03/07 04:43:34;;;;;;;10.50;5.90;;;;;;;-1.21;64.36;99376.11;25100;1316;3030147;-68
2022/03/07 04:46:06;;;;;;;10.80;6.40;;;;;;;-1.24;64.52;99375.14;25127;1315;3028759;-73
2022/03/07 04:48:35;;;;;;;10.50;6.20;;;;;;;-1.20;64.29;99371.64;25112;1315;3048911;-73
2022/03/07 04:51:05;;;;;;;10.90;6.20;;;;;;;-1.31;64.23;99367.15;25119;1316;3026732;-68
2022/03/07 04:53:34;;;;;;;8.80;4.90;;;;;;;-1.31;64.58;99363.89;25127;1316;3028450;-67
2022/03/07 04:56:05;;;;;;;11.30;6.00;;;;;;;-1.32;64.45;99361.85;25155;1315;3029940;-66
2022/03/07 04:58:34;;;;;;;11.10;5.90;;;;;;;-1.32;64.66;99356.52;25131;1315;3028000;-62
2022/03/07 05:01:04;;;;;;;9.80;6.50;;;;;;;-1.24;64.45;99353.98;25058;1316;3026377;-66
2022/03/07 05:03:33;;;;;;;14.00;7.20;;;;;;;-1.37;65.22;99354.86;25149;1314;3055665;-71
2022/03/07 05:06:03;;;;;;;9.90;6.10;;;;;;;-1.25;65.02;99351.94;25045;1316;3026507;-66
2022/03/07 05:08:33;;;;;;;9.60;5.30;;;;;;;-1.33;65.00;99351.38;25143;1316;3027583;-69
2022/03/07 05:11:02;;;;;;;11.20;6.70;;;;;;;-1.30;64.83;99352.71;25051;1316;3027480;-68
2022/03/07 05:13:31;;;;;;;12.90;7.60;;;;;;;-1.24;64.49;99348.66;25112;1315;3049143;-64
2022/03/07 05:16:03;;;;;;;10.30;6.70;;;;;;;-1.33;65.30;99349.31;25070;1315;3028857;-67
2022/03/07 05:18:33;;;;;;;11.10;6.60;;;;;;;-1.27;65.42;99344.23;25110;1315;3029969;-71
2022/03/07 05:21:02;;;;;;;15.90;7.00;;;;;;;-1.19;64.84;99344.47;25086;1315;3026382;-68
2022/03/07 05:23:33;;;;;;;11.60;7.10;;;;;;;-1.19;64.57;99339.82;25096;1316;3028491;-73
2022/03/07 05:26:02;;;;;;;12.20;7.10;;;;;;;-1.21;64.69;99344.16;25037;1315;3026384;-68
2022/03/07 05:28:33;;;;;;;9.70;6.70;;;;;;;-1.24;64.70;99337.15;25113;1316;3026743;-66
2022/03/07 05:31:02;;;;;;;13.40;7.30;;;;;;;-1.25;64.68;99333.55;25029;1315;3028624;-68
2022/03/07 05:33:31;;;;;;;13.20;6.60;;;;;;;-1.24;65.31;99332.67;25091;1315;3054131;-65
2022/03/07 05:36:00;;;;;;;14.70;6.60;;;;;;;-1.08;64.68;99325.23;25091;1315;3026879;-68
2022/03/07 05:38:30;;;;;;;16.50;8.00;;;;;;;-1.07;64.71;99325.20;25054;1316;3026120;-70
2022/03/07 05:41:00;;;;;;;12.00;7.20;;;;;;;-0.97;64.76;99322.48;25029;1316;3027297;-76
2022/03/07 05:43:29;;;;;;;11.40;6.80;;;;;;;-0.91;64.06;99319.80;25098;1316;3026100;-65
2022/03/07 05:45:58;;;;;;;13.00;7.50;;;;;;;-0.91;64.15;99321.88;25065;1316;3026751;-65
2022/03/07 05:48:27;;;;;;;12.20;7.50;;;;;;;-1.04;64.68;99316.92;25083;1316;3051465;-75
2022/03/07 05:50:56;;;;;;;12.00;7.10;;;;;;;-0.96;64.26;99322.13;25143;1315;3027331;-68
2022/03/07 05:53:25;;;;;;;10.80;6.80;;;;;;;-0.88;64.25;99321.80;25052;1316;3056100;-67
2022/03/07 05:55:55;;;;;;;13.80;7.60;;;;;;;-0.81;64.09;99320.15;25104;1316;3026629;-75
2022/03/07 05:58:24;;;;;;;11.20;7.30;;;;;;;-0.76;64.14;99318.01;25046;1315;3051277;-68
2022/03/07 06:00:53;;;;;;;13.30;7.30;;;;;;;-0.74;63.83;99321.23;25096;1316;3026442;-70
2022/03/07 06:03:22;;;;;;;10.50;6.20;;;;;;;-0.82;63.59;99318.96;25116;1315;3050936;-72
2022/03/07 06:05:52;;;;;;;12.70;6.70;;;;;;;-1.02;63.93;99317.58;25141;1316;3027919;-68
2022/03/07 06:08:21;;;;;;;12.10;7.60;;;;;;;-0.90;64.25;99317.20;25096;1315;3026898;-70
2022/03/07 06:11:03;;;;;;;13.80;6.70;;;;;;;-0.77;63.88;99314.25;25181;1315;3054623;-67
2022/03/07 06:13:31;;;;;;;9.20;5.90;;;;;;;-0.84;64.00;99316.25;25139;1316;3026093;-68
2022/03/07 06:16:01;;;;;;;16.10;7.30;;;;;;;-0.86;64.61;99313.02;25203;1316;3042428;-63
2022/03/07 06:18:37;;;;;;;12.30;6.80;;;;;;;-0.83;64.56;99313.66;25219;1316;3053095;-72
2022/03/07 06:21:08;;;;;;;13.50;7.80;;;;;;;-0.67;64.07;99314.07;25109;1316;3026975;-65
2022/03/07 06:23:37;;;;;;;11.50;6.60;;;;;;;-0.70;63.64;99315.85;25253;1316;3026692;-68
2022/03/07 06:26:08;;;;;;;12.80;6.30;;;;;;;-0.81;63.95;99314.30;25165;1316;3027779;-65
2022/03/07 06:28:37;;;;;;;14.80;6.80;;;;;;;-0.66;63.54;99313.19;25131;1316;3026496;-74
2022/03/07 06:31:06;;;;;;;15.30;6.80;;;;;;;-0.58;63.46;99311.52;25185;1316;3028098;-67
2022/03/07 06:33:36;;;;;;;8.80;5.50;;;;;;;-0.61;63.33;99310.88;25140;1316;3026005;-69
2022/03/07 06:36:06;;;;;;;15.30;6.90;;;;;;;-0.62;62.68;99309.18;25118;1316;3026924;-67
2022/03/07 06:38:35;;;;;;;11.20;6.30;;;;;;;-0.57;62.63;99304.95;25118;1315;3050341;-71
2022/03/07 06:41:05;;;;;;;9.60;5.10;;;;;;;-0.55;62.99;99304.91;25127;1316;3026764;-75
2022/03/07 06:43:34;;;;;;;10.40;5.30;;;;;;;-0.53;62.41;99306.08;25042;1315;3026901;-74
2022/03/07 06:46:03;;;;;;;10.00;6.10;;;;;;;-0.57;62.42;99310.80;25118;1316;3053088;-67
2022/03/07 06:48:36;;;;;;;8.00;5.30;;;;;;;-0.43;62.27;99300.23;25212;1316;3028841;-65
2022/03/07 06:51:05;;;;;;;15.30;6.10;;;;;;;-0.49;62.45;99301.88;25503;1316;3027688;-62
2022/03/07 06:53:35;;;;;;;14.10;7.00;;;;;;;-0.49;62.32;99296.20;25485;1315;3028313;-61
2022/03/07 06:56:04;;;;;;;11.40;6.90;;;;;;;-0.52;62.74;99297.80;25175;1314;3068490;-68
2022/03/07 06:58:33;;;;;;;11.00;5.70;;;;;;;-0.43;61.62;99300.73;25122;1316;3026435;-74
2022/03/07 07:01:03;;;;;;;8.90;6.30;;;;;;;-0.43;61.70;99296.09;25083;1316;3053163;-69
2022/03/07 07:03:34;;;;;;;17.40;7.60;;;;;;;-0.37;61.89;99295.46;25095;1316;3026336;-67
2022/03/07 07:06:04;;;;;;;10.90;6.50;;;;;;;-0.33;62.50;99287.83;25036;1315;3029940;-66
2022/03/07 07:08:35;;;;;;;11.00;5.90;;;;;;;-0.42;62.70;99292.96;25112;1316;3026322;-71
2022/03/07 07:11:04;;;;;;;10.10;6.10;;;;;;;-0.48;62.71;99290.52;25075;1315;3028806;-68
2022/03/07 07:13:34;;;;;;;20.20;9.40;;;;;;;-0.58;63.34;99288.80;25024;1316;3028159;-67
2022/03/07 07:16:03;;;;;;;13.10;6.70;;;;;;;-0.53;63.57;99286.29;25100;1315;3027099;-70
2022/03/07 07:18:33;;;;;;;10.50;5.90;;;;;;;-0.60;63.79;99281.77;25118;1316;3028314;-66
2022/03/07 07:21:03;;;;;;;12.90;6.60;;;;;;;-0.56;63.73;99273.29;25114;1316;3026521;-67
2022/03/07 07:23:35;;;;;;;11.60;6.70;;;;;;;-0.41;63.59;99277.80;25051;1316;3026754;-72
2022/03/07 07:26:05;;;;;;;11.20;7.10;;;;;;;-0.32;63.39;99276.96;25029;1315;3027131;-66
2022/03/07 07:28:34;;;;;;;11.10;6.40;;;;;;;-0.29;63.15;99272.77;25051;1315;3027681;-74
2022/03/07 07:31:03;;;;;;;13.90;7.60;;;;;;;-0.17;62.80;99273.40;25093;1316;3026698;-74
2022/03/07 07:33:48;;;;;;;14.40;8.40;;;;;;;-0.25;63.36;99263.91;25089;1319;3058623;-68
2022/03/07 07:36:18;;;;;;;15.50;8.40;;;;;;;-0.14;63.41;99266.10;25068;1319;3027396;-65
2022/03/07 07:38:47;;;;;;;12.10;7.10;;;;;;;-0.11;63.20;99262.25;25130;1316;3026557;-66
2022/03/07 07:41:16;;;;;;;15.40;6.90;;;;;;;-0.20;63.36;99260.90;25068;1316;3026412;-71
2022/03/07 07:43:49;;;;;;;18.60;8.80;;;;;;;-0.32;64.93;99253.90;25053;1315;3049178;-68
2022/03/07 07:46:18;;;;;;;19.60;10.20;;;;;;;-0.26;65.07;99254.13;25047;1316;3027472;-72
2022/03/07 07:59:47;;;;;;;11.80;6.70;;;;;;;-0.31;63.39;99237.17;25078;1317;3051530;-70
2022/03/07 08:02:15;;;;;;;13.90;6.70;;;;;;;-0.28;63.81;99232.48;25040;1315;3028318;-70
2022/03/07 08:04:44;;;;;;;14.90;6.60;;;;;;;-0.34;63.47;99228.63;25051;1316;3055822;-68
2022/03/07 08:07:14;;;;;;;18.60;8.50;;;;;;;-0.18;62.97;99224.86;25041;1315;3026460;-67
2022/03/07 08:09:43;;;;;;;12.00;6.80;;;;;;;-0.08;63.16;99224.32;25069;1315;3026990;-68
2022/03/07 08:12:17;;;;;;;13.00;7.40;;;;;;;0.11;62.68;99214.60;25000;1316;3054820;-70
2022/03/07 08:14:47;;;;;;;11.70;6.90;;;;;;;0.22;62.05;99222.80;25094;1316;3051764;-62
2022/03/07 08:17:16;;;;;;;14.30;7.20;;;;;;;0.06;62.54;99209.55;25149;1315;3026683;-72
2022/03/07 08:19:45;;;;;;;12.80;7.50;;;;;;;0.20;62.69;99205.45;25089;1321;3055199;-69
2022/03/07 08:22:15;;;;;;;13.10;7.40;;;;;;;0.34;61.72;99199.96;25074;1315;3026870;-65
2022/03/07 08:24:44;;;;;;;18.20;8.90;;;;;;;0.38;61.33;99198.50;25110;1315;3050874;-66
2022/03/07 08:27:13;;;;;;;13.40;7.70;;;;;;;0.29;62.01;99196.63;25097;1316;3026578;-70
2022/03/07 08:29:42;;;;;;;11.10;6.30;;;;;;;0.37;60.35;99189.39;25132;1315;3059152;-69
2022/03/07 08:32:11;;;;;;;11.50;6.60;;;;;;;0.22;60.40;99187.83;25078;1318;3028361;-73
2022/03/07 08:34:41;;;;;;;10.70;6.10;;;;;;;0.09;60.69;99185.02;25087;1316;3052350;-64
2022/03/07 08:37:10;;;;;;;10.20;4.50;;;;;;;-0.00;61.15;99191.26;25042;1315;3026241;-65
2022/03/07 08:39:40;;;;;;;10.60;5.80;;;;;;;0.06;60.86;99193.17;25016;1315;3027235;-67
2022/03/07 08:42:09;;;;;;;9.10;5.40;;;;;;;-0.18;62.13;99187.67;25109;1315;3026312;-66
2022/03/07 08:44:38;;;;;;;12.20;6.60;;;;;;;-0.41;64.35;99195.21;25059;1315;3058685;-69
2022/03/07 08:47:09;;;;;;;11.90;6.80;;;;;;;-0.28;65.18;99189.10;25107;1315;3029956;-67
2022/03/07 08:49:39;;;;;;;13.10;7.30;;;;;;;-0.32;65.65;99191.77;25134;1315;3051509;-66
2022/03/07 08:52:08;;;;;;;12.30;8.00;;;;;;;-0.48;66.52;99188.30;25026;1315;3026565;-74
2022/03/07 08:54:37;;;;;;;12.20;6.10;;;;;;;-0.49;65.81;99190.20;25083;1315;3051479;-73
2022/03/07 08:57:07;;;;;;;14.00;6.90;;;;;;;-0.50;66.26;99184.89;25083;1315;3026348;-73
2022/03/07 08:59:36;;;;;;;13.10;6.60;;;;;;;-0.27;65.82;99179.80;25034;1315;3026333;-72
2022/03/07 09:02:05;;;;;;;13.40;7.10;;;;;;;-0.38;66.90;99182.22;25117;1316;3054000;-67
2022/03/07 09:04:36;;;;;;;10.80;5.50;;;;;;;-0.31;65.52;99176.94;25095;1316;3026457;-70
2022/03/07 09:07:06;;;;;;;13.40;7.20;;;;;;;-0.27;65.21;99175.81;25099;1316;3026787;-66
2022/03/07 09:09:35;;;;;;;12.60;7.40;;;;;;;-0.19;65.08;99176.17;25106;1313;3027201;-69
2022/03/07 09:12:05;;;;;;;13.80;7.60;;;;;;;-0.19;65.75;99172.05;25091;1315;3026238;-70
2022/03/07 09:14:35;;;;;;;12.30;7.00;;;;;;;-0.07;65.11;99171.10;25034;1316;3026755;-68
2022/03/07 09:17:05;;;;;;;8.00;5.20;;;;;;;-0.07;64.60;99174.18;25130;1316;3027306;-73
2022/03/07 09:19:35;;;;;;;9.20;5.50;;;;;;;-0.02;63.98;99175.81;25164;1316;3026281;-65
2022/03/07 09:22:05;;;;;;;6.80;4.00;;;;;;;0.23;63.57;99171.27;25247;1314;3026936;-72
2022/03/07 09:24:34;;;;;;;7.30;4.50;;;;;;;0.31;63.01;99177.11;25113;1315;3026954;-69
2022/03/07 09:27:04;;;;;;;8.50;5.20;;;;;;;0.36;63.32;99172.69;25133;1315;3026126;-68
2022/03/07 09:29:36;;;;;;;10.00;6.20;;;;;;;0.34;63.47;99170.32;25276;1313;3053228;-68
2022/03/07 09:32:08;;;;;;;11.60;6.50;;;;;;;0.37;63.99;99169.57;25149;1315;3028056;-66
2022/03/07 09:34:38;;;;;;;8.10;5.00;;;;;;;0.33;63.71;99166.22;25197;1317;3026650;-71
2022/03/07 09:37:06;;;;;;;9.50;4.50;;;;;;;0.57;62.45;99167.54;25236;1316;3026244;-68
2022/03/07 09:39:40;;;;;;;10.50;6.20;;;;;;;0.53;62.92;99158.15;25106;1315;3052628;-64
2022/03/07 09:42:09;;;;;;;9.40;5.80;;;;;;;0.40;63.48;99158.13;25122;1316;3027621;-71
2022/03/07 09:44:39;;;;;;;10.40;6.40;;;;;;;0.50;62.78;99149.80;25168;1316;3026513;-71
2022/03/07 09:47:08;;;;;;;12.30;6.40;;;;;;;0.65;62.48;99146.63;25060;1315;3026640;-70
2022/03/07 09:49:37;;;;;;;8.00;5.20;;;;;;;0.87;61.80;99138.86;25121;1316;3055507;-74
2022/03/07 09:52:06;;;;;;;10.00;5.70;;;;;;;1.06;60.80;99140.24;25078;1315;3026451;-72
2022/03/07 09:54:35;;;;;;;7.90;5.40;;;;;;;1.42;59.97;99137.70;25123;1315;3026761;-69
2022/03/07 09:57:05;;;;;;;6.10;4.00;;;;;;;1.53;56.41;99136.36;25122;1313;3056788;-67
2022/03/07 09:59:35;;;;;;;5.20;3.20;;;;;;;1.46;56.09;99138.80;25090;1313;3026767;-67
2022/03/07 10:02:05;;;;;;;5.20;3.50;;;;;;;1.60;55.53;99128.23;25138;1318;3027181;-68
2022/03/07 10:04:43;;;;;;;6.80;3.30;;;;;;;1.55;55.59;99129.90;25122;1316;3056235;-66
2022/03/07 10:07:12;;;;;;;4.60;3.10;;;;;;;1.52;55.53;99132.77;25146;1313;3049694;-68
2022/03/07 10:09:42;;;;;;;4.00;2.80;;;;;;;1.50;55.27;99130.04;25101;1315;3025983;-66
2022/03/07 10:12:11;;;;;;;3.70;2.80;;;;;;;1.41;54.44;99126.86;25120;1316;3026441;-74
2022/03/07 10:15:11;;;;;;;3.20;2.20;;;;;;;1.57;53.30;99122.59;25013;1316;3073503;-70
2022/03/07 10:17:45;;;;;;;2.60;1.90;;;;;;;1.32;52.16;99121.41;25134;1314;3048827;-69
2022/03/07 10:20:18;;;;;;;4.60;1.90;;;;;;;1.41;51.17;99117.02;25049;1314;3052337;-64
2022/03/07 10:22:50;;;;;;;4.20;2.40;;;;;;;1.74;51.13;99111.04;25070;1313;3052529;-71
2022/03/07 10:25:28;;;;;;;4.20;2.70;;;;;;;1.84;50.91;99104.18;25159;1316;3026471;-72
2022/03/07 10:28:00;;;;;;;5.50;2.90;;;;;;;1.93;51.55;99103.56;25157;1315;3049501;-72
2022/03/07 10:30:32;;;;;;;5.20;2.90;;;;;;;2.10;49.81;99100.45;25125;1315;3027010;-67
2022/03/07 10:33:05;;;;;;;4.80;2.70;;;;;;;2.26;49.03;99094.75;25042;1316;3027112;-73
2022/03/07 10:35:36;;;;;;;5.80;2.70;;;;;;;2.22;49.77;99101.25;25071;1316;3029806;-66
2022/03/07 10:38:08;;;;;;;6.20;3.20;;;;;;;2.31;50.14;99090.78;25139;1316;3026752;-70
2022/03/07 10:40:39;;;;;;;6.70;3.70;;;;;;;2.34;50.64;99087.91;25152;1313;3028318;-69
2022/03/07 10:43:08;;;;;;;5.90;3.20;;;;;;;2.43;49.33;99089.19;25468;1313;3027292;-66
2022/03/07 10:45:47;;;;;;;5.70;3.30;;;;;;;2.61;49.01;99085.63;25550;1313;3026629;-63
2022/03/07 10:48:18;;;;;;;7.40;3.70;;;;;;;2.30;47.71;99083.36;25408;1316;3050057;-65
2022/03/07 10:50:51;;;;;;;7.30;3.20;;;;;;;2.45;48.36;99083.57;25172;1313;3026333;-73
2022/03/07 10:53:20;;;;;;;7.40;3.30;;;;;;;2.43;47.71;99069.48;25075;1314;3055086;-71
2022/03/07 10:55:51;;;;;;;6.40;4.30;;;;;;;2.37;48.24;99072.09;25098;1316;3027983;-66
2022/03/07 10:58:21;;;;;;;6.90;3.30;;;;;;;2.26;48.73;99070.88;25127;1315;3026570;-72
2022/03/07 11:00:57;;;;;;;5.00;2.70;;;;;;;1.98;49.20;99071.44;25063;1314;3026421;-69
2022/03/07 11:03:33;;;;;;;4.00;2.80;;;;;;;2.00;49.71;99067.95;25152;1313;3050768;-64
2022/03/07 11:06:05;;;;;;;7.00;3.40;;;;;;;1.71;49.81;99077.11;25142;1315;3056785;-74
2022/03/07 11:08:34;;;;;;;4.30;2.80;;;;;;;1.84;50.18;99067.91;25090;1315;3027161;-71
2022/03/07 11:11:23;;;;;;;5.80;3.70;;;;;;;1.58;51.22;99084.23;25095;1315;3051877;-70
2022/03/07 11:13:54;;;;;;;6.00;3.10;;;;;;;1.64;51.77;99069.73;25162;1315;3026808;-75
2022/03/07 11:16:23;;;;;;;5.70;3.70;;;;;;;2.05;50.91;99063.44;25132;1315;3051832;-70
2022/03/07 11:18:55;;;;;;;7.00;4.00;;;;;;;2.24;50.87;99058.18;25159;1312;3026198;-71
2022/03/07 11:21:26;;;;;;;6.10;4.10;;;;;;;2.27;50.89;99052.70;25120;1315;3026261;-72
2022/03/07 11:23:56;;;;;;;7.00;4.20;;;;;;;2.20;50.98;99055.04;25130;1313;3027101;-69
2022/03/07 11:26:26;;;;;;;11.90;4.50;;;;;;;1.98;51.90;99052.44;25170;1316;3026686;-70
2022/03/07 11:28:58;;;;;;;9.30;4.20;;;;;;;1.82;51.79;99053.63;25098;1315;3028777;-67
2022/03/07 11:31:28;;;;;;;6.90;4.90;;;;;;;2.06;51.48;99047.19;25131;1314;3027098;-73
2022/03/07 11:33:58;;;;;;;8.70;4.30;;;;;;;1.94;50.54;99042.90;25084;1313;3026666;-72
2022/03/07 11:36:29;;;;;;;8.10;3.70;;;;;;;2.05;50.58;99033.06;25136;1313;3027449;-64
2022/03/07 11:39:00;;;;;;;7.70;3.90;;;;;;;2.31;50.26;99029.93;25118;1313;3026538;-68